createdAt,value
2022-10-09T00:01:00.591Z,8.00
2022-10-09T00:03:27.171Z,7.90
2022-10-09T00:05:53.938Z,7.90
2022-10-09T00:08:20.551Z,7.90
2022-10-09T00:10:47.197Z,7.90
2022-10-09T00:13:13.785Z,7.90
2022-10-09T00:15:42.294Z,7.90
2022-10-09T00:18:10.381Z,7.90
2022-10-09T00:20:42.591Z,7.90
2022-10-09T00:23:09.568Z,7.90
2022-10-09T00:25:36.656Z,7.90
2022-10-09T00:28:04.594Z,7.80
2022-10-09T00:30:31.714Z,7.90
2022-10-09T00:32:58.352Z,7.80
2022-10-09T00:35:24.963Z,7.80
2022-10-09T00:37:51.563Z,7.80
2022-10-09T00:40:18.163Z,7.80
2022-10-09T00:42:44.740Z,7.80
2022-10-09T00:45:20.173Z,7.70
2022-10-09T00:48:01.544Z,7.70
2022-10-09T00:50:42.860Z,7.70
2022-10-09T00:53:13.423Z,7.70
2022-10-09T00:55:40.320Z,7.80
2022-10-09T00:58:07.151Z,7.70
2022-10-09T01:00:33.782Z,7.80
2022-10-09T01:03:00.565Z,7.80
2022-10-09T01:05:48.893Z,7.80
2022-10-09T01:08:24.885Z,7.80
2022-10-09T01:11:08.050Z,7.80
2022-10-09T01:13:37.340Z,7.80
2022-10-09T01:16:16.107Z,7.80
2022-10-09T01:19:01.307Z,7.80
2022-10-09T01:21:46.382Z,7.80
2022-10-09T01:24:21.411Z,7.90
2022-10-09T01:27:19.663Z,7.80
2022-10-09T01:29:50.039Z,7.80
2022-10-09T01:32:21.939Z,7.80
2022-10-09T01:34:50.908Z,7.80
2022-10-09T01:37:20.200Z,7.80
2022-10-09T01:39:47.743Z,7.80
2022-10-09T01:42:15.481Z,7.80
2022-10-09T01:44:42.595Z,7.70
2022-10-09T01:47:16.651Z,7.80
2022-10-09T01:50:29.835Z,7.70
2022-10-09T01:53:01.751Z,7.70
2022-10-09T01:55:51.119Z,7.60
2022-10-09T01:58:23.441Z,7.70
2022-10-09T02:01:11.319Z,7.70
2022-10-09T02:03:41.022Z,7.70
2022-10-09T02:06:11.708Z,7.60
2022-10-09T02:08:40.127Z,7.60
2022-10-09T02:11:07.568Z,7.60
2022-10-09T02:13:35.731Z,7.50
2022-10-09T02:16:11.445Z,7.50
2022-10-09T02:18:44.794Z,7.50
2022-10-09T02:21:54.539Z,7.50
2022-10-09T02:24:23.247Z,7.50
2022-10-09T02:26:52.721Z,7.50
2022-10-09T02:29:19.754Z,7.50
2022-10-09T02:31:46.393Z,7.50
2022-10-09T02:34:17.652Z,7.50
2022-10-09T02:36:44.271Z,7.50
2022-10-09T02:39:11.260Z,7.50
2022-10-09T02:41:37.901Z,7.50
2022-10-09T02:44:05.457Z,7.50
2022-10-09T02:46:33.259Z,7.50
2022-10-09T02:48:59.874Z,7.40
2022-10-09T02:51:26.912Z,7.30
2022-10-09T02:53:54.234Z,7.30
2022-10-09T02:56:22.266Z,7.30
2022-10-09T02:58:49.389Z,7.30
2022-10-09T03:01:16.347Z,7.30
2022-10-09T03:03:43.269Z,7.30
2022-10-09T03:06:12.824Z,7.20
2022-10-09T03:08:41.488Z,7.20
2022-10-09T03:11:09.103Z,7.20
2022-10-09T03:13:35.960Z,7.20
2022-10-09T03:16:07.223Z,7.20
2022-10-09T03:18:34.366Z,7.20
2022-10-09T03:21:01.184Z,7.10
2022-10-09T03:23:27.791Z,7.10
2022-10-09T03:26:03.091Z,7.20
2022-10-09T03:28:30.494Z,7.20
2022-10-09T03:30:57.250Z,7.20
2022-10-09T03:33:23.873Z,7.20
2022-10-09T03:35:50.469Z,7.20
2022-10-09T03:38:17.130Z,7.10
2022-10-09T03:40:43.896Z,7.10
2022-10-09T03:43:10.502Z,7.10
2022-10-09T03:45:43.728Z,7.10
2022-10-09T03:48:11.474Z,7.10
2022-10-09T03:50:39.317Z,7.10
2022-10-09T03:53:07.571Z,7.10
2022-10-09T03:55:34.451Z,7.10
2022-10-09T03:58:01.088Z,7.10
2022-10-09T04:00:27.929Z,7.10
2022-10-09T04:02:54.668Z,7.10
2022-10-09T04:05:21.468Z,7.10
2022-10-09T04:07:48.061Z,7.10
2022-10-09T04:10:14.708Z,7.00
2022-10-09T04:12:41.576Z,7.00
2022-10-09T04:15:08.915Z,6.90
2022-10-09T04:17:35.514Z,6.90
2022-10-09T04:20:02.130Z,6.90
2022-10-09T04:22:28.711Z,6.90
2022-10-09T04:24:55.304Z,7.00
2022-10-09T04:27:21.914Z,6.90
2022-10-09T04:29:48.530Z,6.90
2022-10-09T04:32:15.183Z,7.00
2022-10-09T04:34:41.769Z,7.00
2022-10-09T04:37:08.380Z,7.00
2022-10-09T04:39:34.964Z,6.90
2022-10-09T04:42:01.554Z,6.90
2022-10-09T04:44:28.158Z,7.00
2022-10-09T04:46:54.728Z,7.00
2022-10-09T04:49:21.306Z,7.10
2022-10-09T04:51:47.948Z,7.10
2022-10-09T04:54:14.565Z,7.10
2022-10-09T04:56:41.203Z,7.00
2022-10-09T04:59:07.794Z,7.00
2022-10-09T05:01:38.263Z,7.10
2022-10-09T05:04:05.447Z,7.00
2022-10-09T05:06:32.107Z,7.00
2022-10-09T05:08:58.723Z,6.90
2022-10-09T05:11:26.255Z,7.00
2022-10-09T05:13:55.298Z,7.00
2022-10-09T05:16:24.905Z,6.90
2022-10-09T05:18:56.951Z,6.90
2022-10-09T05:21:24.557Z,6.90
2022-10-09T05:23:53.614Z,6.90
2022-10-09T05:26:21.651Z,7.10
2022-10-09T05:28:48.926Z,7.00
2022-10-09T05:31:19.686Z,7.10
2022-10-09T05:33:46.894Z,7.00
2022-10-09T05:36:14.397Z,7.00
2022-10-09T05:38:41.090Z,7.10
2022-10-09T05:41:10.988Z,7.20
2022-10-09T05:43:39.615Z,7.20
2022-10-09T05:46:21.275Z,7.20
2022-10-09T05:48:56.218Z,7.20
2022-10-09T05:51:25.491Z,7.30
2022-10-09T05:53:52.622Z,7.30
2022-10-09T05:56:23.377Z,7.30
2022-10-09T05:58:52.828Z,7.30
2022-10-09T06:01:20.436Z,7.40
2022-10-09T06:03:51.920Z,7.40
2022-10-09T06:06:21.971Z,7.40
2022-10-09T06:08:48.880Z,7.40
2022-10-09T06:11:36.042Z,7.40
2022-10-09T06:14:05.835Z,7.50
2022-10-09T06:16:38.709Z,7.50
2022-10-09T06:19:06.764Z,7.50
2022-10-09T06:21:34.095Z,7.60
2022-10-09T06:24:02.162Z,7.60
2022-10-09T06:26:30.067Z,7.60
2022-10-09T06:28:58.155Z,7.70
2022-10-09T06:31:30.678Z,7.60
2022-10-09T06:34:00.016Z,7.70
2022-10-09T06:36:28.974Z,7.70
2022-10-09T06:38:56.033Z,7.80
2022-10-09T06:41:25.211Z,7.90
2022-10-09T06:44:00.052Z,7.90
2022-10-09T06:46:29.637Z,8.00
2022-10-09T06:48:56.492Z,8.00
2022-10-09T06:51:24.807Z,8.00
2022-10-09T06:53:53.768Z,8.00
2022-10-09T06:56:22.584Z,8.00
2022-10-09T06:58:49.595Z,8.10
2022-10-09T07:01:18.057Z,8.10
2022-10-09T07:03:46.754Z,8.20
2022-10-09T07:06:18.063Z,8.20
2022-10-09T07:08:48.326Z,8.20
2022-10-09T07:11:19.052Z,8.20
2022-10-09T07:13:45.646Z,8.20
2022-10-09T07:16:12.373Z,8.30
2022-10-09T07:18:39.615Z,8.40
2022-10-09T07:21:08.511Z,8.40
2022-10-09T07:23:36.038Z,8.40
2022-10-09T07:26:08.869Z,8.40
2022-10-09T07:28:35.524Z,8.50
2022-10-09T07:31:05.878Z,8.50
2022-10-09T07:33:32.767Z,8.50
2022-10-09T07:36:00.933Z,8.60
2022-10-09T07:38:28.281Z,8.70
2022-10-09T07:40:55.366Z,8.70
2022-10-09T07:43:21.985Z,8.80
2022-10-09T07:45:48.620Z,8.80
2022-10-09T07:48:15.400Z,8.90
2022-10-09T07:50:42.021Z,9.00
2022-10-09T07:53:08.712Z,9.10
2022-10-09T07:55:35.803Z,9.10
2022-10-09T07:58:02.571Z,9.20
2022-10-09T08:00:29.365Z,9.20
2022-10-09T08:02:56.150Z,9.40
2022-10-09T08:05:22.835Z,9.40
2022-10-09T08:07:49.460Z,9.40
2022-10-09T08:10:16.164Z,9.40
2022-10-09T08:12:42.764Z,9.50
2022-10-09T08:15:09.600Z,9.50
2022-10-09T08:17:36.217Z,9.60
2022-10-09T08:20:02.917Z,9.60
2022-10-09T08:22:29.520Z,9.70
2022-10-09T08:24:56.104Z,9.70
2022-10-09T08:27:22.762Z,9.70
2022-10-09T08:29:49.393Z,9.80
2022-10-09T08:32:15.969Z,9.90
2022-10-09T08:34:42.573Z,9.90
2022-10-09T08:37:09.215Z,10.00
2022-10-09T08:39:35.779Z,10.10
2022-10-09T08:42:02.429Z,10.10
2022-10-09T08:44:39.134Z,10.10
2022-10-09T08:47:27.123Z,10.20
2022-10-09T08:50:01.850Z,10.20
2022-10-09T08:52:49.711Z,10.40
2022-10-09T08:55:31.223Z,10.50
2022-10-09T08:58:04.985Z,10.60
2022-10-09T09:00:43.570Z,10.60
2022-10-09T09:03:16.315Z,10.60
2022-10-09T09:05:54.663Z,10.70
2022-10-09T09:08:41.940Z,10.60
2022-10-09T09:11:45.803Z,10.80
2022-10-09T09:14:32.072Z,10.90
2022-10-09T09:17:43.501Z,10.90
2022-10-09T09:20:24.518Z,11.00
2022-10-09T09:22:51.544Z,11.00
2022-10-09T09:25:28.141Z,11.00
2022-10-09T09:27:59.831Z,11.10
2022-10-09T09:30:34.191Z,11.10
2022-10-09T09:33:04.379Z,11.20
2022-10-09T09:35:44.734Z,11.20
2022-10-09T09:38:11.344Z,11.30
2022-10-09T09:40:39.865Z,11.30
2022-10-09T09:43:17.718Z,11.30
2022-10-09T09:45:45.312Z,11.30
2022-10-09T09:48:32.093Z,11.40
2022-10-09T09:51:23.354Z,11.60
2022-10-09T09:53:50.222Z,11.60
2022-10-09T09:56:17.779Z,11.60
2022-10-09T09:58:49.891Z,11.50
2022-10-09T10:01:36.788Z,11.70
2022-10-09T10:04:04.627Z,11.80
2022-10-09T10:06:34.412Z,11.90
2022-10-09T10:09:21.616Z,12.00
2022-10-09T10:11:58.151Z,12.10
2022-10-09T10:14:25.623Z,12.20
2022-10-09T10:16:54.291Z,12.20
2022-10-09T10:19:27.539Z,12.20
2022-10-09T10:22:21.345Z,12.40
2022-10-09T10:24:50.140Z,12.40
2022-10-09T10:27:37.670Z,12.50
2022-10-09T10:30:06.789Z,12.60
2022-10-09T10:32:35.330Z,12.70
2022-10-09T10:35:10.889Z,12.80
2022-10-09T10:38:03.890Z,12.80
2022-10-09T10:40:37.544Z,12.90
2022-10-09T10:43:07.584Z,12.80
2022-10-09T10:45:40.456Z,12.90
2022-10-09T10:48:14.942Z,12.90
2022-10-09T10:50:49.871Z,12.90
2022-10-09T10:53:33.700Z,13.00
2022-10-09T10:56:08.376Z,12.90
2022-10-09T10:59:10.915Z,13.00
2022-10-09T11:01:50.670Z,12.90
2022-10-09T11:04:33.723Z,12.90
2022-10-09T11:07:31.208Z,13.00
2022-10-09T11:10:18.683Z,13.10
2022-10-09T11:12:58.107Z,13.20
2022-10-09T11:15:43.302Z,13.20
2022-10-09T11:18:37.803Z,13.30
2022-10-09T11:21:22.661Z,13.40
2022-10-09T11:24:08.201Z,13.50
2022-10-09T11:26:43.872Z,13.40
2022-10-09T11:29:19.824Z,13.30
2022-10-09T11:32:03.010Z,13.40
2022-10-09T11:34:39.136Z,13.40
2022-10-09T11:37:12.672Z,13.50
2022-10-09T11:39:40.196Z,13.40
2022-10-09T11:42:10.006Z,13.30
2022-10-09T11:45:16.977Z,13.40
2022-10-09T11:47:58.560Z,13.30
2022-10-09T11:50:47.020Z,13.30
2022-10-09T11:53:17.287Z,13.40
2022-10-09T11:55:44.100Z,13.50
2022-10-09T11:58:19.722Z,13.50
2022-10-09T12:00:49.639Z,13.60
2022-10-09T12:03:34.557Z,13.50
2022-10-09T12:06:12.271Z,13.60
2022-10-09T12:08:55.005Z,13.50
2022-10-09T12:11:22.499Z,13.50
2022-10-09T12:13:57.967Z,13.50
2022-10-09T12:16:33.793Z,13.50
2022-10-09T12:19:22.444Z,13.60
2022-10-09T12:24:51.658Z,13.60
2022-10-09T12:27:34.341Z,13.60
2022-10-09T12:30:13.551Z,13.70
2022-10-09T12:32:49.883Z,13.80
2022-10-09T12:35:35.191Z,13.80
2022-10-09T12:38:01.874Z,13.80
2022-10-09T12:40:34.704Z,14.00
2022-10-09T12:43:07.459Z,14.00
2022-10-09T12:45:41.930Z,13.80
2022-10-09T12:48:09.853Z,13.80
2022-10-09T12:50:36.960Z,14.00
2022-10-09T12:53:06.620Z,14.00
2022-10-09T12:55:43.060Z,13.90
2022-10-09T12:58:36.602Z,13.90
2022-10-09T13:01:07.729Z,14.10
2022-10-09T13:03:38.923Z,14.10
2022-10-09T13:06:08.390Z,14.10
2022-10-09T13:08:38.330Z,14.20
2022-10-09T13:11:24.781Z,14.10
2022-10-09T13:13:53.541Z,14.20
2022-10-09T13:16:21.010Z,14.00
2022-10-09T13:19:00.902Z,14.00
2022-10-09T13:21:32.701Z,14.10
2022-10-09T13:24:11.746Z,14.00
2022-10-09T13:26:40.689Z,13.90
2022-10-09T13:29:07.713Z,14.00
2022-10-09T13:31:34.807Z,14.10
2022-10-09T13:34:11.612Z,14.00
2022-10-09T13:36:38.288Z,14.10
2022-10-09T13:39:05.318Z,14.00
2022-10-09T13:41:32.320Z,14.10
2022-10-09T13:43:58.921Z,14.20
2022-10-09T13:46:25.545Z,14.10
2022-10-09T13:48:52.153Z,14.00
2022-10-09T13:51:18.723Z,14.20
2022-10-09T13:53:45.303Z,14.00
2022-10-09T13:56:11.872Z,14.10
2022-10-09T13:58:38.455Z,14.10
2022-10-09T14:01:05.336Z,14.20
2022-10-09T14:03:31.943Z,14.20
2022-10-09T14:06:00.018Z,14.10
2022-10-09T14:08:26.814Z,14.00
2022-10-09T14:10:53.942Z,14.00
2022-10-09T14:13:20.563Z,14.00
2022-10-09T14:15:47.523Z,14.10
2022-10-09T14:18:14.086Z,14.20
2022-10-09T14:20:40.685Z,14.10
2022-10-09T14:23:07.260Z,14.00
2022-10-09T14:25:34.744Z,14.00
2022-10-09T14:28:01.365Z,14.10
2022-10-09T14:30:27.985Z,14.00
2022-10-09T14:32:54.559Z,14.00
2022-10-09T14:35:21.792Z,14.20
2022-10-09T14:37:48.607Z,14.10
2022-10-09T14:40:15.751Z,14.10
2022-10-09T14:42:42.340Z,14.00
2022-10-09T14:45:10.036Z,13.90
2022-10-09T14:47:36.606Z,13.90
2022-10-09T14:50:03.591Z,13.90
2022-10-09T14:52:30.162Z,14.00
2022-10-09T14:54:56.806Z,13.90
2022-10-09T14:57:23.385Z,13.80
2022-10-09T14:59:49.950Z,13.90
2022-10-09T15:02:17.075Z,13.90
2022-10-09T15:04:43.648Z,13.90
2022-10-09T15:07:10.282Z,13.80
2022-10-09T15:09:36.859Z,13.80
2022-10-09T15:12:03.615Z,13.80
2022-10-09T15:14:30.306Z,13.80
2022-10-09T15:16:56.880Z,13.90
2022-10-09T15:19:23.450Z,13.80
2022-10-09T15:21:50.021Z,13.90
2022-10-09T15:24:16.594Z,13.80
2022-10-09T15:26:43.194Z,13.80
2022-10-09T15:29:11.016Z,13.70
2022-10-09T15:31:40.634Z,13.70
2022-10-09T15:34:08.281Z,13.70
2022-10-09T15:36:37.636Z,13.80
2022-10-09T15:39:05.224Z,13.80
2022-10-09T15:41:34.327Z,13.80
2022-10-09T15:44:03.742Z,13.70
2022-10-09T15:46:30.820Z,13.60
2022-10-09T15:48:57.659Z,13.60
2022-10-09T15:51:24.685Z,13.40
2022-10-09T15:53:52.407Z,13.40
2022-10-09T15:56:22.361Z,13.40
2022-10-09T15:58:49.373Z,13.40
2022-10-09T16:01:17.035Z,13.30
2022-10-09T16:03:48.014Z,13.30
2022-10-09T16:06:18.113Z,13.20
2022-10-09T16:08:46.503Z,13.20
2022-10-09T16:11:14.663Z,13.20
2022-10-09T16:13:43.105Z,13.20
2022-10-09T16:16:18.411Z,13.10
2022-10-09T16:18:45.494Z,13.10
2022-10-09T16:21:18.719Z,13.10
2022-10-09T16:23:45.605Z,13.10
2022-10-09T16:26:14.717Z,13.10
2022-10-09T16:28:41.477Z,13.10
2022-10-09T16:31:08.174Z,13.00
2022-10-09T16:33:35.036Z,12.90
2022-10-09T16:36:10.081Z,13.10
2022-10-09T16:38:37.414Z,12.90
2022-10-09T16:41:10.892Z,12.90
2022-10-09T16:43:38.485Z,12.90
2022-10-09T16:46:18.347Z,12.80
2022-10-09T16:48:45.750Z,12.70
2022-10-09T16:51:16.110Z,12.70
2022-10-09T16:53:42.933Z,12.80
2022-10-09T16:56:15.247Z,12.80
2022-10-09T16:58:43.022Z,12.70
2022-10-09T17:01:10.715Z,12.80
2022-10-09T17:03:37.999Z,12.70
2022-10-09T17:06:09.451Z,12.80
2022-10-09T17:08:36.121Z,12.70
2022-10-09T17:11:06.727Z,12.80
2022-10-09T17:13:33.386Z,12.80
2022-10-09T17:15:59.983Z,12.70
2022-10-09T17:18:26.714Z,12.60
2022-10-09T17:20:53.308Z,12.60
2022-10-09T17:23:19.896Z,12.50
2022-10-09T17:25:46.595Z,12.50
2022-10-09T17:28:13.241Z,12.60
2022-10-09T17:30:40.595Z,12.50
2022-10-09T17:33:07.412Z,12.40
2022-10-09T17:35:38.793Z,12.40
2022-10-09T17:38:05.393Z,12.40
2022-10-09T17:40:32.012Z,12.40
2022-10-09T17:42:58.600Z,12.30
2022-10-09T17:45:25.222Z,12.30
2022-10-09T17:47:51.831Z,12.30
2022-10-09T17:50:18.568Z,12.30
2022-10-09T17:52:45.170Z,12.30
2022-10-09T17:55:11.763Z,12.30
2022-10-09T17:57:38.411Z,12.20
2022-10-09T18:00:05.478Z,12.10
2022-10-09T18:02:32.119Z,12.20
2022-10-09T18:04:58.724Z,12.20
2022-10-09T18:07:25.324Z,12.10
2022-10-09T18:09:52.229Z,12.20
2022-10-09T18:12:18.813Z,12.10
2022-10-09T18:14:45.391Z,12.10
2022-10-09T18:17:12.225Z,12.10
2022-10-09T18:19:38.808Z,12.10
2022-10-09T18:22:05.485Z,12.10
2022-10-09T18:24:32.074Z,12.00
2022-10-09T18:26:58.689Z,12.00
2022-10-09T18:29:25.293Z,12.00
2022-10-09T18:31:51.906Z,12.00
2022-10-09T18:34:18.500Z,12.00
2022-10-09T18:36:45.078Z,12.00
2022-10-09T18:39:14.353Z,12.00
2022-10-09T18:41:41.473Z,12.00
2022-10-09T18:44:09.330Z,12.00
2022-10-09T18:46:41.227Z,11.90
2022-10-09T18:49:11.259Z,12.00
2022-10-09T18:51:40.919Z,12.00
2022-10-09T18:54:08.542Z,11.80
2022-10-09T18:56:36.451Z,11.80
2022-10-09T18:59:11.842Z,11.70
2022-10-09T19:01:38.472Z,11.60
2022-10-09T19:04:05.209Z,11.60
2022-10-09T19:06:31.879Z,11.60
2022-10-09T19:08:58.711Z,11.50
2022-10-09T19:11:25.306Z,11.50
2022-10-09T19:13:51.899Z,11.40
2022-10-09T19:16:18.497Z,11.40
2022-10-09T19:18:45.059Z,11.30
2022-10-09T19:21:15.390Z,11.30
2022-10-09T19:23:42.218Z,11.20
2022-10-09T19:26:08.821Z,11.20
2022-10-09T19:28:35.429Z,11.10
2022-10-09T19:31:05.654Z,11.10
2022-10-09T19:33:32.460Z,11.00
2022-10-09T19:35:59.225Z,11.00
2022-10-09T19:38:27.461Z,11.00
2022-10-09T19:40:54.171Z,10.90
2022-10-09T19:43:21.698Z,10.80
2022-10-09T19:45:48.408Z,10.80
2022-10-09T19:48:16.085Z,10.70
2022-10-09T19:50:44.051Z,10.70
2022-10-09T19:53:12.057Z,10.60
2022-10-09T19:55:38.828Z,10.70
2022-10-09T19:58:05.530Z,10.60
2022-10-09T20:00:32.157Z,10.60
2022-10-09T20:02:58.782Z,10.60
2022-10-09T20:05:25.434Z,10.60
2022-10-09T20:07:52.448Z,10.50
2022-10-09T20:10:19.101Z,10.50
2022-10-09T20:12:45.695Z,10.40
2022-10-09T20:15:12.257Z,10.40
2022-10-09T20:17:38.849Z,10.40
2022-10-09T20:20:06.132Z,10.30
2022-10-09T20:22:32.732Z,10.30
2022-10-09T20:24:59.404Z,10.30
2022-10-09T20:27:26.040Z,10.30
2022-10-09T20:29:53.367Z,10.20
2022-10-09T20:32:20.064Z,10.20
2022-10-09T20:34:46.824Z,10.20
2022-10-09T20:37:13.470Z,10.10
2022-10-09T20:39:40.037Z,10.20
2022-10-09T20:42:06.641Z,10.20
2022-10-09T20:44:33.275Z,10.20
2022-10-09T20:46:59.870Z,10.10
2022-10-09T20:49:26.511Z,10.10
2022-10-09T20:51:53.243Z,10.10
2022-10-09T20:54:21.281Z,10.10
2022-10-09T20:56:48.930Z,10.10
2022-10-09T20:59:16.588Z,10.10
2022-10-09T21:01:43.609Z,10.10
2022-10-09T21:04:11.009Z,10.00
2022-10-09T21:06:38.503Z,10.00
2022-10-09T21:09:05.121Z,9.90
2022-10-09T21:11:31.836Z,9.90
2022-10-09T21:13:58.415Z,9.90
2022-10-09T21:16:25.374Z,9.90
2022-10-09T21:19:05.182Z,10.00
2022-10-09T21:21:32.446Z,9.90
2022-10-09T21:24:00.363Z,9.80
2022-10-09T21:26:27.935Z,9.80
2022-10-09T21:28:59.350Z,9.80
2022-10-09T21:31:29.762Z,9.80
2022-10-09T21:33:57.036Z,9.80
2022-10-09T21:37:08.819Z,9.70
2022-10-09T21:39:34.227Z,9.60
2022-10-09T21:42:00.797Z,9.70
2022-10-09T21:44:27.457Z,9.70
2022-10-09T21:46:54.225Z,9.70
2022-10-09T21:49:25.721Z,9.70
2022-10-09T21:51:52.785Z,9.60
2022-10-09T21:54:19.812Z,9.70
2022-10-09T21:56:46.803Z,9.70
2022-10-09T21:59:13.591Z,9.70
2022-10-09T22:01:40.230Z,9.70
2022-10-09T22:04:06.899Z,9.70
2022-10-09T22:06:33.504Z,9.70
2022-10-09T22:09:00.103Z,9.60
2022-10-09T22:11:27.127Z,9.60
2022-10-09T22:13:55.645Z,9.60
2022-10-09T22:16:22.404Z,9.60
2022-10-09T22:18:48.981Z,9.50
2022-10-09T22:21:16.461Z,9.50
2022-10-09T22:23:43.360Z,9.50
2022-10-09T22:26:15.398Z,9.50
2022-10-09T22:28:42.110Z,9.60
2022-10-09T22:31:11.054Z,9.60
2022-10-09T22:33:37.747Z,9.50
2022-10-09T22:36:24.592Z,9.50
2022-10-09T22:38:56.905Z,9.50
2022-10-09T22:41:25.253Z,9.50
2022-10-09T22:43:53.617Z,9.50
2022-10-09T22:46:26.089Z,9.40
2022-10-09T22:48:53.141Z,9.50
2022-10-09T22:51:21.254Z,9.50
2022-10-09T22:53:48.733Z,9.40
2022-10-09T22:56:21.231Z,9.40
2022-10-09T22:58:48.805Z,9.30
2022-10-09T23:01:19.093Z,9.30
2022-10-09T23:03:45.813Z,9.20
2022-10-09T23:06:15.000Z,9.20
2022-10-09T23:08:43.387Z,9.20
2022-10-09T23:11:11.459Z,9.20
2022-10-09T23:13:38.370Z,9.30
2022-10-09T23:16:07.741Z,9.30
2022-10-09T23:18:35.359Z,9.30
2022-10-09T23:21:11.315Z,9.30
2022-10-09T23:23:37.941Z,9.40
2022-10-09T23:26:06.310Z,9.50
2022-10-09T23:28:33.833Z,9.50
2022-10-09T23:31:09.458Z,9.50
2022-10-09T23:33:37.946Z,9.60
2022-10-09T23:36:05.467Z,9.60
2022-10-09T23:38:32.379Z,9.60
2022-10-09T23:41:01.057Z,9.70
2022-10-09T23:43:28.893Z,9.60
2022-10-09T23:45:57.062Z,9.60
2022-10-09T23:48:24.060Z,9.70
2022-10-09T23:50:52.091Z,9.60
2022-10-09T23:53:19.763Z,9.70
2022-10-09T23:55:46.646Z,9.60
2022-10-09T23:58:18.434Z,9.70
